createdAt,value
2023-05-02T05:00:58.305Z,56.25
2023-05-02T05:01:58.268Z,61.88
2023-05-02T05:03:00.811Z,61.88
2023-05-02T05:03:58.315Z,61.88
2023-05-02T05:04:58.179Z,61.88
2023-05-02T05:05:58.153Z,61.88
2023-05-02T05:06:58.295Z,67.50
2023-05-02T05:07:58.158Z,73.12
2023-05-02T05:08:58.185Z,73.12
2023-05-02T05:09:58.338Z,73.12
2023-05-02T05:10:58.183Z,73.12
2023-05-02T05:12:03.134Z,73.12
2023-05-02T05:12:58.112Z,73.12
2023-05-02T05:13:58.110Z,78.75
2023-05-02T05:14:58.043Z,78.75
2023-05-02T05:15:58.073Z,78.75
2023-05-02T05:16:58.068Z,84.38
2023-05-02T05:17:58.232Z,90.00
2023-05-02T05:18:58.006Z,95.62
2023-05-02T05:19:58.117Z,101.25
2023-05-02T05:20:57.996Z,95.62
2023-05-02T05:21:57.970Z,101.25
2023-05-02T05:23:03.015Z,101.25
2023-05-02T05:23:57.982Z,101.25
2023-05-02T05:24:57.947Z,101.25
2023-05-02T05:25:57.964Z,101.25
2023-05-02T05:26:57.911Z,101.25
2023-05-02T05:27:57.937Z,95.62
2023-05-02T05:28:57.893Z,95.62
2023-05-02T05:29:58.027Z,95.62
2023-05-02T05:30:57.878Z,95.62
2023-05-02T05:31:57.947Z,90.00
2023-05-02T05:32:57.933Z,90.00
2023-05-02T05:34:02.888Z,90.00
2023-05-02T05:34:57.833Z,95.62
2023-05-02T05:35:57.840Z,90.00
2023-05-02T05:36:57.801Z,95.62
2023-05-02T05:37:57.788Z,101.25
2023-05-02T05:38:57.792Z,106.88
2023-05-02T05:39:57.913Z,112.50
2023-05-02T05:40:57.777Z,118.12
2023-05-02T05:41:57.752Z,118.12
2023-05-02T05:42:57.739Z,123.75
2023-05-02T05:43:57.736Z,123.75
2023-05-02T05:45:02.768Z,129.38
2023-05-02T05:45:57.697Z,129.38
2023-05-02T05:46:57.759Z,135.00
2023-05-02T05:47:57.732Z,135.00
2023-05-02T05:48:57.693Z,135.00
2023-05-02T05:49:57.919Z,140.62
2023-05-02T05:50:57.647Z,146.25
2023-05-02T05:51:57.641Z,157.50
2023-05-02T05:52:57.621Z,168.75
2023-05-02T05:53:57.642Z,168.75
2023-05-02T05:54:57.612Z,168.75
2023-05-02T05:56:02.603Z,168.75
2023-05-02T05:56:57.571Z,163.12
2023-05-02T05:57:57.593Z,163.12
2023-05-02T05:58:57.574Z,168.75
2023-05-02T05:59:57.803Z,168.75
2023-05-02T06:00:57.564Z,185.62
2023-05-02T06:01:57.516Z,185.62
2023-05-02T06:02:57.727Z,180.00
2023-05-02T06:03:57.600Z,185.62
2023-05-02T06:04:57.599Z,168.75
2023-05-02T06:05:57.480Z,168.75
2023-05-02T06:07:02.482Z,168.75
2023-05-02T06:07:57.461Z,168.75
2023-05-02T06:08:57.465Z,180.00
2023-05-02T06:09:57.563Z,180.00
2023-05-02T06:10:57.444Z,185.62
2023-05-02T06:11:57.427Z,174.38
2023-05-02T06:12:57.391Z,163.12
2023-05-02T06:13:57.401Z,163.12
2023-05-02T06:14:57.375Z,151.88
2023-05-02T06:15:57.378Z,140.62
2023-05-02T06:16:57.351Z,135.00
2023-05-02T06:18:02.428Z,129.38
2023-05-02T06:18:57.343Z,135.00
2023-05-02T06:19:57.360Z,140.62
2023-05-02T06:20:57.324Z,140.62
2023-05-02T06:21:57.298Z,146.25
2023-05-02T06:22:57.285Z,151.88
2023-05-02T06:23:57.312Z,146.25
2023-05-02T06:24:57.259Z,151.88
2023-05-02T06:25:57.254Z,146.25
2023-05-02T06:26:57.243Z,146.25
2023-05-02T06:27:57.233Z,146.25
2023-05-02T06:29:02.252Z,151.88
2023-05-02T06:29:57.312Z,146.25
2023-05-02T06:30:57.189Z,151.88
2023-05-02T06:31:57.297Z,157.50
2023-05-02T06:32:57.225Z,163.12
2023-05-02T06:33:57.184Z,180.00
2023-05-02T06:34:57.139Z,196.88
2023-05-02T06:35:58.146Z,241.88
2023-05-02T06:36:57.145Z,202.50
2023-05-02T06:37:57.118Z,225.00
2023-05-02T06:38:57.109Z,196.88
2023-05-02T06:40:02.389Z,202.50
2023-05-02T06:40:57.133Z,196.88
2023-05-02T06:41:57.141Z,191.25
2023-05-02T06:42:57.052Z,191.25
2023-05-02T06:43:57.058Z,196.88
2023-05-02T06:44:57.049Z,213.75
2023-05-02T06:45:57.028Z,225.00
2023-05-02T06:46:57.140Z,236.25
2023-05-02T06:47:57.052Z,247.50
2023-05-02T06:48:57.008Z,275.62
2023-05-02T06:49:57.166Z,264.38
2023-05-02T06:51:02.018Z,253.12
2023-05-02T06:51:56.964Z,258.75
2023-05-02T06:52:56.968Z,241.88
2023-05-02T06:53:56.948Z,241.88
2023-05-02T06:54:56.926Z,253.12
2023-05-02T06:55:56.997Z,236.25
2023-05-02T06:56:56.896Z,213.75
2023-05-02T06:57:56.882Z,208.12
2023-05-02T06:58:56.932Z,213.75
2023-05-02T06:59:56.922Z,219.38
2023-05-02T07:00:56.950Z,258.75
2023-05-02T07:02:04.344Z,253.12
2023-05-02T07:02:56.859Z,270.00
2023-05-02T07:03:56.915Z,292.50
2023-05-02T07:04:56.805Z,343.12
2023-05-02T07:05:56.801Z,298.12
2023-05-02T07:06:56.821Z,281.25
2023-05-02T07:07:56.780Z,303.75
2023-05-02T07:08:56.818Z,315.00
2023-05-02T07:09:56.782Z,326.25
2023-05-02T07:10:56.748Z,343.12
2023-05-02T07:11:56.719Z,337.50
2023-05-02T07:13:01.725Z,348.75
2023-05-02T07:13:56.721Z,365.62
2023-05-02T07:14:56.781Z,376.88
2023-05-02T07:15:56.681Z,376.88
2023-05-02T07:16:56.788Z,365.62
2023-05-02T07:17:56.770Z,365.62
2023-05-02T07:18:56.656Z,337.50
2023-05-02T07:19:56.675Z,354.38
2023-05-02T07:20:56.618Z,393.75
2023-05-02T07:21:56.613Z,450.00
2023-05-02T07:22:56.622Z,472.50
2023-05-02T07:24:01.777Z,438.75
2023-05-02T07:24:56.606Z,466.88
2023-05-02T07:25:56.602Z,410.62
2023-05-02T07:26:56.550Z,410.62
2023-05-02T07:27:56.560Z,388.12
2023-05-02T07:28:56.596Z,354.38
2023-05-02T07:29:56.545Z,292.50
2023-05-02T07:30:56.514Z,275.62
2023-05-02T07:31:56.554Z,241.88
2023-05-02T07:32:56.574Z,292.50
2023-05-02T07:33:56.490Z,410.62
2023-05-02T07:35:01.486Z,483.75
2023-05-02T07:35:56.462Z,466.88
2023-05-02T07:36:56.455Z,388.12
2023-05-02T07:37:56.477Z,320.62
2023-05-02T07:38:56.419Z,303.75
2023-05-02T07:39:56.421Z,315.00
2023-05-02T07:40:56.396Z,292.50
2023-05-02T07:41:56.394Z,253.12
2023-05-02T07:42:56.414Z,258.75
2023-05-02T07:43:56.378Z,292.50
2023-05-02T07:44:56.348Z,371.25
2023-05-02T07:46:01.412Z,354.38
2023-05-02T07:46:56.324Z,348.75
2023-05-02T07:47:56.428Z,393.75
2023-05-02T07:48:56.332Z,421.88
2023-05-02T07:49:56.318Z,393.75
2023-05-02T07:50:56.283Z,500.62
2023-05-02T07:51:56.316Z,500.62
2023-05-02T07:52:56.277Z,461.25
2023-05-02T07:53:56.269Z,438.75
2023-05-02T07:54:56.260Z,450.00
2023-05-02T07:55:56.256Z,523.12
2023-05-02T07:57:01.257Z,528.75
2023-05-02T07:57:56.200Z,399.38
2023-05-02T07:58:56.221Z,466.88
2023-05-02T07:59:56.216Z,405.00
2023-05-02T08:00:56.173Z,382.50
2023-05-02T08:01:56.178Z,393.75
2023-05-02T08:02:56.197Z,399.38
2023-05-02T08:03:56.416Z,568.12
2023-05-02T08:04:56.181Z,691.88
2023-05-02T08:05:56.153Z,731.25
2023-05-02T08:06:56.149Z,669.38
2023-05-02T08:08:01.130Z,568.12
2023-05-02T08:08:56.095Z,523.12
2023-05-02T08:09:56.074Z,534.38
2023-05-02T08:10:56.071Z,562.50
2023-05-02T08:11:56.100Z,500.62
2023-05-02T08:12:56.051Z,483.75
2023-05-02T08:13:56.024Z,556.88
2023-05-02T08:14:56.037Z,427.50
2023-05-02T08:15:56.071Z,438.75
2023-05-02T08:16:56.026Z,540.00
2023-05-02T08:17:56.021Z,573.75
2023-05-02T08:19:01.026Z,697.50
2023-05-02T08:19:55.982Z,680.62
2023-05-02T08:20:55.973Z,590.62
2023-05-02T08:21:56.064Z,551.25
2023-05-02T08:22:57.967Z,461.25
2023-05-02T08:23:55.916Z,421.88
2023-05-02T08:24:55.908Z,393.75
2023-05-02T08:25:56.038Z,371.25
2023-05-02T08:26:55.942Z,371.25
2023-05-02T08:27:55.895Z,382.50
2023-05-02T08:28:55.884Z,399.38
2023-05-02T08:30:01.396Z,495.00
2023-05-02T08:30:55.831Z,607.50
2023-05-02T08:31:55.922Z,556.88
2023-05-02T08:32:55.841Z,770.62
2023-05-02T08:33:55.825Z,1248.75
2023-05-02T08:34:55.828Z,804.38
2023-05-02T08:35:55.778Z,714.38
2023-05-02T08:36:58.276Z,675.00
2023-05-02T08:37:55.753Z,759.38
2023-05-02T08:38:55.761Z,545.62
2023-05-02T08:39:55.757Z,866.25
2023-05-02T08:41:00.747Z,523.12
2023-05-02T08:41:55.732Z,736.88
2023-05-02T08:42:55.700Z,573.75
2023-05-02T08:43:55.721Z,658.12
2023-05-02T08:44:55.675Z,748.12
2023-05-02T08:45:55.659Z,405.00
2023-05-02T08:46:55.710Z,315.00
2023-05-02T08:47:55.731Z,275.62
2023-05-02T08:48:55.885Z,281.25
2023-05-02T08:49:55.653Z,298.12
2023-05-02T08:50:55.608Z,320.62
2023-05-02T08:52:00.644Z,326.25
2023-05-02T08:52:55.612Z,405.00
2023-05-02T08:53:55.614Z,680.62
2023-05-02T08:54:55.584Z,663.75
2023-05-02T08:55:55.560Z,500.62
2023-05-02T08:56:55.547Z,421.88
2023-05-02T08:57:55.531Z,382.50
2023-05-02T08:58:55.516Z,331.88
2023-05-02T08:59:55.718Z,286.88
2023-05-02T09:00:55.479Z,292.50
2023-05-02T09:01:55.470Z,354.38
2023-05-02T09:03:00.515Z,281.25
2023-05-02T09:03:55.477Z,258.75
2023-05-02T09:04:55.447Z,253.12
2023-05-02T09:05:55.446Z,286.88
2023-05-02T09:06:55.455Z,309.38
2023-05-02T09:07:55.453Z,298.12
2023-05-02T09:08:55.394Z,264.38
2023-05-02T09:09:55.394Z,236.25
2023-05-02T09:10:55.378Z,253.12
2023-05-02T09:11:55.384Z,264.38
2023-05-02T09:12:55.372Z,281.25
2023-05-02T09:14:00.364Z,303.75
2023-05-02T09:14:55.329Z,348.75
2023-05-02T09:15:55.443Z,360.00
2023-05-02T09:16:55.423Z,376.88
2023-05-02T09:17:55.418Z,354.38
2023-05-02T09:18:55.309Z,388.12
2023-05-02T09:19:55.268Z,495.00
2023-05-02T09:20:55.294Z,652.50
2023-05-02T09:21:55.273Z,652.50
2023-05-02T09:22:55.285Z,793.12
2023-05-02T09:23:55.227Z,438.75
2023-05-02T09:25:00.563Z,371.25
2023-05-02T09:25:55.207Z,331.88
2023-05-02T09:26:55.239Z,275.62
2023-05-02T09:27:55.224Z,230.62
2023-05-02T09:28:55.177Z,196.88
2023-05-02T09:29:55.185Z,208.12
2023-05-02T09:30:55.199Z,241.88
2023-05-02T09:31:56.667Z,281.25
2023-05-02T09:32:55.800Z,315.00
2023-05-02T09:33:55.221Z,365.62
2023-05-02T09:34:55.102Z,433.12
2023-05-02T09:36:00.144Z,523.12
2023-05-02T09:36:55.074Z,573.75
2023-05-02T09:37:55.074Z,483.75
2023-05-02T09:38:55.094Z,343.12
2023-05-02T09:39:55.056Z,354.38
2023-05-02T09:40:55.162Z,343.12
2023-05-02T09:41:55.137Z,326.25
2023-05-02T09:42:55.032Z,298.12
2023-05-02T09:43:55.021Z,258.75
2023-05-02T09:44:55.020Z,191.25
2023-05-02T09:45:55.055Z,163.12
2023-05-02T09:47:00.001Z,146.25
2023-05-02T09:47:55.062Z,135.00
2023-05-02T09:48:54.966Z,129.38
2023-05-02T09:49:54.947Z,123.75
2023-05-02T09:50:54.942Z,123.75
2023-05-02T09:51:54.927Z,118.12
2023-05-02T09:52:54.900Z,95.62
2023-05-02T09:53:54.888Z,78.75
2023-05-02T09:54:54.905Z,67.50
2023-05-02T09:55:54.953Z,56.25
2023-05-02T09:56:54.852Z,50.62
2023-05-02T09:57:59.869Z,50.62
2023-05-02T09:58:54.829Z,45.00
2023-05-02T09:59:54.834Z,50.62
2023-05-02T10:00:54.812Z,50.62
2023-05-02T10:01:54.855Z,61.88
2023-05-02T10:02:54.842Z,73.12
2023-05-02T10:03:54.972Z,78.75
2023-05-02T10:04:54.777Z,90.00
2023-05-02T10:05:54.747Z,106.88
2023-05-02T10:06:54.842Z,118.12
2023-05-02T10:07:54.728Z,129.38
2023-05-02T10:08:59.868Z,123.75
2023-05-02T10:09:54.759Z,123.75
2023-05-02T10:10:54.700Z,118.12
2023-05-02T10:11:54.719Z,118.12
2023-05-02T10:12:54.691Z,123.75
2023-05-02T10:13:54.690Z,129.38
2023-05-02T10:14:54.681Z,129.38
2023-05-02T10:15:54.670Z,129.38
2023-05-02T10:16:54.648Z,146.25
2023-05-02T10:17:54.703Z,157.50
2023-05-02T10:18:54.645Z,174.38
2023-05-02T10:19:59.617Z,180.00
2023-05-02T10:20:54.579Z,196.88
2023-05-02T10:21:54.581Z,180.00
2023-05-02T10:22:54.562Z,163.12
2023-05-02T10:23:54.555Z,140.62
2023-05-02T10:24:54.542Z,151.88
2023-05-02T10:25:54.548Z,168.75
2023-05-02T10:26:54.540Z,202.50
2023-05-02T10:27:54.517Z,315.00
2023-05-02T10:28:54.531Z,455.62
2023-05-02T10:29:54.494Z,618.75
2023-05-02T10:30:59.561Z,641.25
2023-05-02T10:31:54.510Z,956.25
2023-05-02T10:32:54.561Z,736.88
2023-05-02T10:33:54.467Z,601.88
2023-05-02T10:34:54.442Z,1012.50
2023-05-02T10:35:54.417Z,961.88
2023-05-02T10:36:54.439Z,421.88
2023-05-02T10:37:54.504Z,365.62
2023-05-02T10:38:54.417Z,455.62
2023-05-02T10:39:54.408Z,2030.62
2023-05-02T10:40:54.357Z,1597.50
2023-05-02T10:41:59.376Z,945.00
2023-05-02T10:42:54.376Z,652.50
2023-05-02T10:43:54.326Z,1575.00
2023-05-02T10:44:54.312Z,2418.75
2023-05-02T10:45:54.301Z,1968.75
2023-05-02T10:46:54.360Z,1321.88
2023-05-02T10:47:54.409Z,1141.88
2023-05-02T10:48:54.269Z,1968.75
2023-05-02T10:49:54.273Z,1462.50
2023-05-02T10:50:54.266Z,658.12
2023-05-02T10:51:54.241Z,613.12
2023-05-02T10:52:59.268Z,573.75
2023-05-02T10:53:54.218Z,590.62
2023-05-02T10:54:54.197Z,585.00
2023-05-02T10:55:54.186Z,511.88
2023-05-02T10:56:54.196Z,2818.12
2023-05-02T10:57:54.170Z,1794.38
2023-05-02T10:58:54.158Z,759.38
2023-05-02T10:59:54.156Z,1822.50
2023-05-02T11:00:54.185Z,1175.62
2023-05-02T11:01:54.280Z,596.25
2023-05-02T11:02:54.256Z,753.75
2023-05-02T11:03:59.121Z,770.62
2023-05-02T11:04:54.091Z,781.88
2023-05-02T11:05:54.077Z,444.38
2023-05-02T11:06:54.077Z,348.75
2023-05-02T11:07:54.043Z,343.12
2023-05-02T11:08:54.042Z,438.75
2023-05-02T11:09:54.026Z,720.00
2023-05-02T11:10:54.025Z,1243.12
2023-05-02T11:11:54.008Z,2829.38
2023-05-02T11:12:53.988Z,1743.75
2023-05-02T11:13:53.979Z,1333.12
2023-05-02T11:14:59.355Z,703.12
2023-05-02T11:15:53.974Z,3386.25
2023-05-02T11:16:54.011Z,1861.88
2023-05-02T11:17:53.997Z,1755.00
2023-05-02T11:18:53.932Z,1153.12
2023-05-02T11:19:53.922Z,1102.50
2023-05-02T11:20:53.918Z,1468.12
2023-05-02T11:21:53.910Z,1181.25
2023-05-02T11:22:53.906Z,2148.75
2023-05-02T11:23:53.875Z,1631.25
2023-05-02T11:24:53.866Z,2829.38
2023-05-02T11:25:58.895Z,1535.62
2023-05-02T11:26:53.832Z,1181.25
2023-05-02T11:27:53.818Z,3031.88
2023-05-02T11:28:53.824Z,2019.38
2023-05-02T11:29:53.821Z,1125.00
2023-05-02T11:30:54.960Z,1428.75
2023-05-02T11:31:53.845Z,1501.88
2023-05-02T11:32:53.835Z,1451.25
2023-05-02T11:33:53.760Z,1749.38
2023-05-02T11:34:53.780Z,2486.25
2023-05-02T11:35:53.738Z,1620.00
2023-05-02T11:36:58.761Z,1440.00
2023-05-02T11:37:53.716Z,1738.12
2023-05-02T11:38:53.745Z,2131.88
2023-05-02T11:39:53.688Z,2413.12
2023-05-02T11:40:53.678Z,2154.38
2023-05-02T11:41:53.664Z,2171.25
2023-05-02T11:42:53.664Z,2430.00
2023-05-02T11:43:53.668Z,2323.12
2023-05-02T11:44:53.639Z,2835.00
2023-05-02T11:45:53.668Z,2998.12
2023-05-02T11:46:53.606Z,3588.75
2023-05-02T11:47:58.728Z,3498.75
2023-05-02T11:48:53.632Z,3650.62
2023-05-02T11:49:53.580Z,3650.62
2023-05-02T11:50:53.564Z,3701.25
2023-05-02T11:51:53.550Z,3847.50
2023-05-02T11:52:53.570Z,3780.00
2023-05-02T11:53:53.537Z,3600.00
2023-05-02T11:54:53.546Z,3903.75
2023-05-02T11:55:53.515Z,3740.62
2023-05-02T11:56:53.506Z,478.12
2023-05-02T11:57:53.511Z,568.12
2023-05-02T11:58:58.533Z,540.00
2023-05-02T11:59:53.495Z,421.88
2023-05-02T12:00:53.666Z,399.38
2023-05-02T12:01:53.691Z,376.88
2023-05-02T12:02:53.526Z,343.12
2023-05-02T12:03:53.465Z,337.50
2023-05-02T12:04:53.413Z,444.38
2023-05-02T12:05:53.437Z,331.88
2023-05-02T12:06:53.429Z,331.88
2023-05-02T12:07:53.436Z,326.25
2023-05-02T12:08:53.371Z,315.00
2023-05-02T12:09:53.358Z,326.25
2023-05-02T12:10:53.372Z,393.75
2023-05-02T12:11:58.355Z,466.88
2023-05-02T12:12:53.334Z,461.25
2023-05-02T12:13:53.309Z,523.12
2023-05-02T12:14:53.342Z,697.50
2023-05-02T12:15:53.365Z,945.00
2023-05-02T12:16:53.290Z,607.50
2023-05-02T12:17:53.314Z,517.50
2023-05-02T12:18:53.303Z,478.12
2023-05-02T12:19:53.248Z,466.88
2023-05-02T12:20:53.233Z,444.38
2023-05-02T12:21:53.261Z,455.62
2023-05-02T12:22:58.232Z,421.88
2023-05-02T12:23:53.194Z,405.00
2023-05-02T12:24:53.184Z,388.12
2023-05-02T12:25:53.180Z,376.88
2023-05-02T12:26:53.203Z,382.50
2023-05-02T12:27:53.201Z,371.25
2023-05-02T12:28:53.157Z,348.75
2023-05-02T12:29:53.134Z,331.88
2023-05-02T12:30:53.154Z,326.25
2023-05-02T12:31:53.216Z,326.25
2023-05-02T12:32:53.182Z,348.75
2023-05-02T12:33:58.183Z,360.00
2023-05-02T12:34:53.147Z,388.12
2023-05-02T12:35:53.092Z,399.38
2023-05-02T12:36:53.079Z,393.75
2023-05-02T12:37:53.066Z,399.38
2023-05-02T12:38:53.145Z,399.38
2023-05-02T12:39:53.027Z,410.62
2023-05-02T12:40:53.017Z,433.12
2023-05-02T12:41:52.989Z,450.00
2023-05-02T12:42:53.015Z,461.25
2023-05-02T12:43:52.993Z,461.25
2023-05-02T12:44:58.022Z,489.38
2023-05-02T12:45:55.406Z,511.88
2023-05-02T12:46:53.222Z,534.38
2023-05-02T12:47:53.978Z,556.88
2023-05-02T12:48:53.909Z,562.50
2023-05-02T12:49:53.914Z,618.75
2023-05-02T12:50:54.891Z,630.00
2023-05-02T12:51:52.940Z,590.62
2023-05-02T12:52:53.383Z,568.12
2023-05-02T12:53:53.401Z,551.25
2023-05-02T12:54:54.886Z,540.00
2023-05-02T12:55:59.559Z,545.62
2023-05-02T12:56:53.065Z,556.88
2023-05-02T12:57:52.958Z,556.88
2023-05-02T12:58:53.428Z,545.62
2023-05-02T12:59:53.413Z,517.50
2023-05-02T13:00:57.510Z,540.00
2023-05-02T13:01:53.888Z,556.88
2023-05-02T13:02:53.121Z,556.88
2023-05-02T13:03:53.462Z,568.12
2023-05-02T13:04:53.422Z,568.12
2023-05-02T13:05:53.568Z,568.12
2023-05-02T13:06:58.555Z,551.25
2023-05-02T13:07:53.406Z,551.25
2023-05-02T13:08:54.392Z,540.00
2023-05-02T13:09:53.515Z,528.75
2023-05-02T13:10:53.890Z,556.88
2023-05-02T13:11:52.727Z,523.12
2023-05-02T13:12:53.977Z,478.12
2023-05-02T13:13:56.387Z,455.62
2023-05-02T13:14:53.602Z,427.50
2023-05-02T13:15:52.770Z,371.25
2023-05-02T13:16:53.639Z,326.25
2023-05-02T13:17:58.507Z,348.75
2023-05-02T13:18:54.471Z,360.00
2023-05-02T13:20:01.455Z,348.75
2023-05-02T13:22:02.902Z,230.62
2023-05-02T13:23:02.852Z,202.50
2023-05-02T13:24:02.875Z,191.25
2023-05-02T13:25:02.828Z,180.00
2023-05-02T13:26:02.823Z,168.75
2023-05-02T13:27:02.801Z,157.50
2023-05-02T13:28:02.787Z,151.88
2023-05-02T13:29:02.795Z,151.88
2023-05-02T13:30:06.508Z,151.88
2023-05-02T13:31:03.816Z,151.88
2023-05-02T13:32:02.762Z,146.25
2023-05-02T13:33:07.830Z,146.25
2023-05-02T13:34:02.753Z,140.62
2023-05-02T13:35:02.765Z,140.62
2023-05-02T13:36:02.734Z,140.62
2023-05-02T13:37:02.687Z,135.00
2023-05-02T13:38:02.702Z,135.00
2023-05-02T13:39:02.708Z,140.62
2023-05-02T13:40:02.982Z,135.00
2023-05-02T13:41:02.655Z,140.62
2023-05-02T13:42:03.744Z,140.62
2023-05-02T13:43:02.694Z,140.62
2023-05-02T13:44:07.677Z,140.62
2023-05-02T13:45:02.598Z,140.62
2023-05-02T13:46:02.642Z,140.62
2023-05-02T13:47:02.660Z,146.25
2023-05-02T13:48:02.689Z,140.62
2023-05-02T13:49:02.547Z,140.62
2023-05-02T13:50:02.871Z,140.62
2023-05-02T13:51:02.550Z,140.62
2023-05-02T13:52:02.529Z,140.62
2023-05-02T13:53:02.513Z,146.25
2023-05-02T13:54:02.501Z,140.62
2023-05-02T13:55:07.541Z,146.25
2023-05-02T13:56:02.472Z,157.50
2023-05-02T13:57:02.455Z,174.38
2023-05-02T13:58:02.467Z,180.00
2023-05-02T13:59:02.438Z,174.38
2023-05-02T14:00:02.915Z,163.12
2023-05-02T14:01:02.473Z,157.50
2023-05-02T14:02:02.585Z,151.88
2023-05-02T14:03:02.591Z,146.25
2023-05-02T14:04:02.656Z,146.25
2023-05-02T14:05:02.390Z,157.50
2023-05-02T14:06:07.410Z,185.62
2023-05-02T14:07:02.393Z,180.00
2023-05-02T14:08:02.341Z,168.75
2023-05-02T14:09:02.352Z,163.12
2023-05-02T14:10:02.649Z,180.00
2023-05-02T14:11:02.305Z,174.38
2023-05-02T14:12:02.298Z,202.50
2023-05-02T14:13:02.292Z,202.50
2023-05-02T14:14:02.285Z,180.00
2023-05-02T14:15:02.269Z,180.00
2023-05-02T14:16:02.272Z,208.12
2023-05-02T14:17:07.361Z,202.50
2023-05-02T14:18:02.272Z,236.25
2023-05-02T14:19:02.214Z,241.88
2023-05-02T14:20:02.509Z,219.38
2023-05-02T14:21:02.185Z,151.88
2023-05-02T14:22:02.177Z,180.00
2023-05-02T14:23:02.162Z,208.12
2023-05-02T14:24:02.154Z,230.62
2023-05-02T14:25:02.165Z,236.25
2023-05-02T14:26:02.150Z,236.25
2023-05-02T14:27:02.119Z,230.62
2023-05-02T14:28:07.131Z,219.38
2023-05-02T14:29:02.096Z,191.25
2023-05-02T14:30:02.293Z,140.62
2023-05-02T14:31:02.076Z,112.50
2023-05-02T14:32:02.162Z,112.50
2023-05-02T14:33:02.127Z,106.88
2023-05-02T14:34:02.047Z,146.25
2023-05-02T14:35:02.190Z,135.00
2023-05-02T14:36:02.022Z,174.38
2023-05-02T14:37:02.006Z,163.12
2023-05-02T14:38:02.023Z,174.38
2023-05-02T14:39:07.028Z,185.62
2023-05-02T14:40:02.172Z,174.38
2023-05-02T14:41:01.970Z,151.88
2023-05-02T14:42:01.957Z,146.25
2023-05-02T14:43:01.966Z,146.25
2023-05-02T14:44:01.938Z,140.62
2023-05-02T14:45:01.934Z,135.00
2023-05-02T14:46:01.913Z,135.00
2023-05-02T14:47:01.939Z,135.00
2023-05-02T14:48:02.004Z,135.00
2023-05-02T14:49:01.895Z,135.00
2023-05-02T14:50:06.956Z,135.00
2023-05-02T14:51:01.859Z,129.38
2023-05-02T14:52:01.862Z,129.38
2023-05-02T14:53:01.860Z,129.38
2023-05-02T14:54:01.861Z,129.38
2023-05-02T14:55:01.826Z,129.38
2023-05-02T14:56:01.812Z,129.38
2023-05-02T14:57:01.774Z,129.38
2023-05-02T14:58:01.766Z,129.38
2023-05-02T14:59:01.756Z,135.00
2023-05-02T15:00:02.116Z,135.00
2023-05-02T15:01:06.780Z,135.00
2023-05-02T15:02:01.862Z,129.38
2023-05-02T15:03:02.453Z,129.38
2023-05-02T15:04:06.112Z,129.38
2023-05-02T15:05:02.708Z,129.38
2023-05-02T15:06:01.869Z,123.75
2023-05-02T15:07:01.754Z,123.75
2023-05-02T15:08:01.648Z,123.75
2023-05-02T15:09:01.640Z,123.75
2023-05-02T15:10:01.873Z,123.75
2023-05-02T15:11:01.623Z,123.75
2023-05-02T15:12:06.632Z,123.75
2023-05-02T15:13:01.591Z,118.12
2023-05-02T15:14:01.580Z,123.75
2023-05-02T15:15:01.580Z,123.75
2023-05-02T15:16:01.578Z,118.12
2023-05-02T15:17:01.732Z,118.12
2023-05-02T15:18:01.605Z,118.12
2023-05-02T15:19:01.540Z,123.75
2023-05-02T15:20:01.718Z,118.12
2023-05-02T15:21:01.528Z,112.50
2023-05-02T15:22:01.496Z,112.50
2023-05-02T15:23:06.507Z,112.50
2023-05-02T15:24:01.494Z,112.50
2023-05-02T15:25:03.059Z,112.50
2023-05-02T15:26:01.453Z,118.12
2023-05-02T15:27:01.437Z,118.12
2023-05-02T15:28:01.427Z,118.12
2023-05-02T15:29:01.421Z,118.12
2023-05-02T15:30:01.736Z,118.12
2023-05-02T15:31:01.425Z,123.75
2023-05-02T15:32:01.499Z,118.12
2023-05-02T15:33:01.395Z,118.12
2023-05-02T15:34:06.376Z,112.50
2023-05-02T15:35:01.344Z,112.50
2023-05-02T15:36:01.350Z,112.50
2023-05-02T15:37:01.344Z,106.88
2023-05-02T15:38:01.310Z,106.88
2023-05-02T15:39:01.305Z,106.88
2023-05-02T15:40:01.609Z,106.88
2023-05-02T15:41:01.274Z,112.50
2023-05-02T15:42:01.438Z,112.50
2023-05-02T15:43:01.273Z,112.50
2023-05-02T15:44:01.251Z,112.50
2023-05-02T15:45:06.266Z,106.88
2023-05-02T15:46:01.269Z,106.88
2023-05-02T15:47:01.229Z,106.88
2023-05-02T15:48:01.258Z,106.88
2023-05-02T15:49:01.203Z,106.88
2023-05-02T15:50:01.396Z,106.88
2023-05-02T15:51:01.167Z,106.88
2023-05-02T15:52:01.176Z,112.50
2023-05-02T15:53:01.162Z,112.50
2023-05-02T15:54:01.189Z,106.88
2023-05-02T15:55:01.126Z,106.88
2023-05-02T15:56:06.128Z,101.25
2023-05-02T15:57:01.105Z,101.25
2023-05-02T15:58:01.084Z,95.62
2023-05-02T15:59:01.069Z,95.62
2023-05-02T16:00:01.289Z,95.62
2023-05-02T16:01:01.046Z,95.62
2023-05-02T16:02:01.049Z,101.25
2023-05-02T16:03:03.185Z,95.62
2023-05-02T16:04:01.071Z,95.62
2023-05-02T16:05:01.012Z,95.62
2023-05-02T16:06:01.090Z,95.62
2023-05-02T16:07:06.000Z,95.62
2023-05-02T16:08:00.969Z,95.62
2023-05-02T16:09:02.876Z,95.62
2023-05-02T16:10:01.255Z,95.62
2023-05-02T16:11:00.928Z,106.88
2023-05-02T16:12:00.955Z,106.88
2023-05-02T16:13:00.908Z,106.88
2023-05-02T16:14:00.903Z,95.62
2023-05-02T16:15:03.151Z,95.62
2023-05-02T16:16:00.947Z,101.25
2023-05-02T16:17:00.860Z,95.62
2023-05-02T16:18:05.928Z,95.62
2023-05-02T16:19:00.836Z,95.62
2023-05-02T16:20:01.083Z,73.12
2023-05-02T16:21:00.815Z,67.50
2023-05-02T16:22:00.810Z,95.62
2023-05-02T16:23:00.792Z,90.00
2023-05-02T16:24:00.822Z,90.00
2023-05-02T16:25:00.795Z,90.00
2023-05-02T16:26:00.819Z,90.00
2023-05-02T16:27:00.773Z,84.38
2023-05-02T16:28:00.744Z,84.38
2023-05-02T16:29:05.776Z,84.38
2023-05-02T16:30:00.927Z,84.38
2023-05-02T16:31:00.738Z,84.38
2023-05-02T16:32:00.832Z,84.38
2023-05-02T16:33:00.701Z,84.38
2023-05-02T16:34:00.674Z,90.00
2023-05-02T16:35:00.676Z,84.38
2023-05-02T16:36:00.663Z,84.38
2023-05-02T16:37:03.180Z,84.38
2023-05-02T16:38:00.632Z,84.38
2023-05-02T16:39:00.625Z,84.38
2023-05-02T16:40:06.420Z,84.38
2023-05-02T16:41:00.601Z,84.38
2023-05-02T16:42:00.604Z,84.38
2023-05-02T16:43:00.580Z,84.38
2023-05-02T16:44:00.568Z,84.38
2023-05-02T16:45:00.574Z,84.38
2023-05-02T16:46:00.553Z,78.75
2023-05-02T16:47:00.673Z,78.75
2023-05-02T16:48:00.568Z,73.12
2023-05-02T16:49:00.506Z,50.62
2023-05-02T16:50:00.814Z,78.75
2023-05-02T16:51:05.525Z,78.75
2023-05-02T16:52:00.484Z,78.75
2023-05-02T16:53:00.475Z,78.75
2023-05-02T16:54:00.518Z,73.12
2023-05-02T16:55:00.468Z,73.12
2023-05-02T16:56:00.487Z,73.12
2023-05-02T16:57:00.435Z,73.12
2023-05-02T16:58:00.408Z,73.12
2023-05-02T16:59:00.407Z,73.12
2023-05-02T17:00:01.108Z,73.12
2023-05-02T17:01:00.468Z,73.12
2023-05-02T17:02:05.409Z,73.12
2023-05-02T17:03:01.651Z,67.50
2023-05-02T17:04:00.352Z,67.50
2023-05-02T17:05:00.387Z,67.50
2023-05-02T17:06:00.464Z,67.50
2023-05-02T17:07:00.302Z,67.50
2023-05-02T17:08:00.294Z,67.50
2023-05-02T17:09:00.292Z,67.50
2023-05-02T17:10:00.560Z,67.50
2023-05-02T17:11:00.263Z,67.50
2023-05-02T17:12:00.439Z,67.50
2023-05-02T17:13:05.261Z,67.50
2023-05-02T17:14:00.233Z,73.12
2023-05-02T17:15:02.057Z,67.50
2023-05-02T17:16:00.201Z,67.50
2023-05-02T17:17:00.386Z,67.50
2023-05-02T17:18:00.364Z,61.88
2023-05-02T17:19:00.180Z,61.88
2023-05-02T17:20:00.772Z,56.25
2023-05-02T17:21:02.001Z,56.25
2023-05-02T17:22:00.157Z,56.25
2023-05-02T17:23:00.123Z,56.25
2023-05-02T17:24:05.185Z,56.25
2023-05-02T17:25:00.119Z,56.25
2023-05-02T17:26:00.086Z,56.25
2023-05-02T17:27:00.130Z,56.25
2023-05-02T17:28:00.096Z,56.25
2023-05-02T17:29:00.130Z,50.62
2023-05-02T17:30:00.248Z,50.62
2023-05-02T17:31:00.078Z,50.62
2023-05-02T17:32:00.089Z,50.62